createdAt,value
2022-10-17T00:00:38.605Z,18.50
2022-10-17T00:03:05.687Z,18.40
2022-10-17T00:05:32.506Z,18.40
2022-10-17T00:07:59.313Z,18.40
2022-10-17T00:10:26.312Z,18.40
2022-10-17T00:12:53.347Z,18.30
2022-10-17T00:15:22.303Z,18.40
2022-10-17T00:17:49.191Z,18.30
2022-10-17T00:20:16.748Z,18.30
2022-10-17T00:22:43.935Z,18.30
2022-10-17T00:25:11.493Z,18.30
2022-10-17T00:27:39.892Z,18.30
2022-10-17T00:30:10.113Z,18.20
2022-10-17T00:32:37.283Z,18.20
2022-10-17T00:35:04.535Z,18.20
2022-10-17T00:37:32.219Z,18.20
2022-10-17T00:39:59.132Z,18.20
2022-10-17T00:42:27.105Z,18.10
2022-10-17T00:45:15.170Z,18.10
2022-10-17T00:47:43.536Z,18.10
2022-10-17T00:50:11.203Z,18.00
2022-10-17T00:52:38.156Z,18.00
2022-10-17T00:55:12.412Z,18.00
2022-10-17T00:57:39.728Z,18.00
2022-10-17T01:00:09.271Z,17.90
2022-10-17T01:02:36.848Z,17.90
2022-10-17T01:05:04.590Z,17.90
2022-10-17T01:07:34.806Z,17.80
2022-10-17T01:10:05.322Z,17.80
2022-10-17T01:12:41.476Z,17.80
2022-10-17T01:15:24.387Z,17.80
2022-10-17T01:18:06.526Z,17.80
2022-10-17T01:20:55.100Z,17.70
2022-10-17T01:23:48.803Z,17.70
2022-10-17T01:26:30.539Z,17.60
2022-10-17T01:29:03.064Z,17.60
2022-10-17T01:31:40.552Z,17.60
2022-10-17T01:34:25.730Z,17.60
2022-10-17T01:37:01.215Z,17.60
2022-10-17T01:39:47.766Z,17.50
2022-10-17T01:46:24.237Z,17.40
2022-10-17T01:48:51.395Z,17.40
2022-10-17T01:51:25.532Z,17.50
2022-10-17T01:54:01.231Z,17.40
2022-10-17T01:56:30.908Z,17.30
2022-10-17T01:59:01.652Z,17.40
2022-10-17T02:01:30.165Z,17.30
2022-10-17T02:03:58.288Z,17.30
2022-10-17T02:06:25.606Z,17.30
2022-10-17T02:08:52.542Z,17.30
2022-10-17T02:11:24.213Z,17.30
2022-10-17T02:14:24.222Z,17.20
2022-10-17T02:17:14.164Z,17.20
2022-10-17T02:20:03.145Z,17.20
2022-10-17T02:23:12.562Z,17.20
2022-10-17T02:25:49.121Z,17.20
2022-10-17T02:28:18.903Z,17.10
2022-10-17T02:30:54.802Z,17.10
2022-10-17T02:33:27.993Z,17.10
2022-10-17T02:35:58.306Z,17.00
2022-10-17T02:38:25.920Z,17.00
2022-10-17T02:40:54.084Z,17.00
2022-10-17T02:43:22.441Z,17.00
2022-10-17T02:45:49.437Z,17.00
2022-10-17T02:48:25.175Z,17.00
2022-10-17T02:50:58.274Z,16.90
2022-10-17T02:53:39.917Z,16.90
2022-10-17T02:56:14.676Z,16.90
2022-10-17T02:58:43.268Z,16.90
2022-10-17T03:01:10.199Z,16.90
2022-10-17T03:03:36.961Z,16.90
2022-10-17T03:06:03.822Z,16.80
2022-10-17T03:08:30.777Z,16.80
2022-10-17T03:10:57.518Z,16.80
2022-10-17T03:13:24.257Z,16.70
2022-10-17T03:15:51.017Z,16.70
2022-10-17T03:18:17.682Z,16.70
2022-10-17T03:20:44.453Z,16.70
2022-10-17T03:23:11.229Z,16.70
2022-10-17T03:25:38.157Z,16.70
2022-10-17T03:28:05.603Z,16.70
2022-10-17T03:30:32.976Z,16.60
2022-10-17T03:33:00.443Z,16.60
2022-10-17T03:35:27.598Z,16.60
2022-10-17T03:37:55.882Z,16.60
2022-10-17T03:40:22.761Z,16.60
2022-10-17T03:42:49.726Z,17.20
2022-10-17T03:45:16.460Z,16.50
2022-10-17T03:47:43.176Z,16.50
2022-10-17T03:50:10.011Z,16.50
2022-10-17T03:52:37.047Z,16.50
2022-10-17T03:55:04.050Z,16.40
2022-10-17T03:57:31.218Z,16.40
2022-10-17T03:59:58.270Z,16.40
2022-10-17T04:02:25.108Z,16.40
2022-10-17T04:04:51.956Z,16.40
2022-10-17T04:07:18.828Z,16.40
2022-10-17T04:09:45.753Z,16.30
2022-10-17T04:12:12.526Z,16.30
2022-10-17T04:14:39.236Z,16.30
2022-10-17T04:17:06.173Z,16.30
2022-10-17T04:19:33.034Z,16.30
2022-10-17T04:21:59.753Z,16.30
2022-10-17T04:24:26.643Z,16.30
2022-10-17T04:26:54.702Z,16.30
2022-10-17T04:29:21.896Z,16.30
2022-10-17T04:31:49.819Z,16.30
2022-10-17T04:34:17.348Z,16.20
2022-10-17T04:36:44.211Z,16.30
2022-10-17T04:39:11.058Z,16.20
2022-10-17T04:41:37.830Z,16.20
2022-10-17T04:44:04.745Z,16.20
2022-10-17T04:46:34.095Z,16.20
2022-10-17T04:49:00.833Z,16.10
2022-10-17T04:51:27.669Z,16.10
2022-10-17T04:53:55.182Z,16.10
2022-10-17T04:56:24.271Z,16.00
2022-10-17T04:58:51.811Z,16.00
2022-10-17T05:01:22.694Z,16.00
2022-10-17T05:03:49.943Z,16.00
2022-10-17T05:06:24.870Z,16.00
2022-10-17T05:08:51.673Z,16.00
2022-10-17T05:11:21.038Z,16.00
2022-10-17T05:13:54.684Z,15.90
2022-10-17T05:16:21.920Z,15.90
2022-10-17T05:18:53.339Z,15.20
2022-10-17T05:21:21.836Z,15.90
2022-10-17T05:23:48.856Z,15.90
2022-10-17T05:26:16.449Z,15.80
2022-10-17T05:28:43.367Z,15.80
2022-10-17T05:31:11.802Z,15.80
2022-10-17T05:33:39.589Z,15.90
2022-10-17T05:36:07.347Z,15.80
2022-10-17T05:38:34.235Z,15.80
2022-10-17T05:41:02.917Z,15.80
2022-10-17T05:43:30.394Z,15.80
2022-10-17T05:45:57.691Z,15.80
2022-10-17T05:48:25.328Z,15.70
2022-10-17T05:51:02.090Z,15.80
2022-10-17T05:53:33.694Z,15.80
2022-10-17T05:56:02.134Z,15.70
2022-10-17T06:01:16.108Z,15.70
2022-10-17T06:03:42.930Z,15.70
2022-10-17T06:06:12.371Z,15.70
2022-10-17T06:08:39.368Z,15.70
2022-10-17T06:11:09.868Z,15.70
2022-10-17T06:13:37.945Z,15.70
2022-10-17T06:16:05.413Z,15.70
2022-10-17T06:18:32.595Z,15.70
2022-10-17T06:21:07.234Z,15.70
2022-10-17T06:23:34.541Z,15.70
2022-10-17T06:26:02.612Z,15.70
2022-10-17T06:28:29.662Z,15.70
2022-10-17T06:30:57.015Z,15.70
2022-10-17T06:33:23.903Z,15.70
2022-10-17T06:35:54.775Z,15.70
2022-10-17T06:38:22.413Z,15.70
2022-10-17T06:40:51.299Z,15.70
2022-10-17T06:43:18.649Z,15.70
2022-10-17T06:45:48.779Z,15.70
2022-10-17T06:48:15.944Z,15.70
2022-10-17T06:50:42.881Z,15.70
2022-10-17T06:53:09.979Z,15.70
2022-10-17T06:55:36.872Z,15.70
2022-10-17T06:58:03.633Z,15.70
2022-10-17T07:00:30.505Z,15.70
2022-10-17T07:02:57.350Z,15.70
2022-10-17T07:05:24.530Z,15.80
2022-10-17T07:07:52.037Z,15.80
2022-10-17T07:10:19.284Z,15.80
2022-10-17T07:12:46.271Z,15.80
2022-10-17T07:15:13.283Z,15.80
2022-10-17T07:17:40.185Z,15.80
2022-10-17T07:20:07.606Z,15.80
2022-10-17T07:22:35.051Z,15.70
2022-10-17T07:25:01.914Z,15.70
2022-10-17T07:27:29.117Z,15.70
2022-10-17T07:29:56.240Z,15.80
2022-10-17T07:32:22.936Z,15.80
2022-10-17T07:34:49.534Z,15.90
2022-10-17T07:37:16.403Z,16.00
2022-10-17T07:39:43.002Z,16.00
2022-10-17T07:42:10.351Z,16.10
2022-10-17T07:44:37.106Z,16.10
2022-10-17T07:47:04.292Z,16.20
2022-10-17T07:49:31.259Z,16.20
2022-10-17T07:51:57.852Z,16.30
2022-10-17T07:54:24.552Z,16.30
2022-10-17T07:56:53.125Z,16.40
2022-10-17T07:59:20.486Z,16.50
2022-10-17T08:01:47.274Z,16.50
2022-10-17T08:04:13.925Z,16.50
2022-10-17T08:06:40.518Z,16.50
2022-10-17T08:09:07.136Z,16.50
2022-10-17T08:11:35.911Z,16.50
2022-10-17T08:14:02.545Z,16.50
2022-10-17T08:16:29.146Z,16.60
2022-10-17T08:18:55.738Z,16.60
2022-10-17T08:21:22.416Z,16.60
2022-10-17T08:23:49.341Z,16.50
2022-10-17T08:26:17.223Z,16.60
2022-10-17T08:28:44.365Z,16.60
2022-10-17T08:31:13.804Z,16.60
2022-10-17T08:33:41.494Z,16.70
2022-10-17T08:36:09.357Z,16.60
2022-10-17T08:38:38.474Z,16.80
2022-10-17T08:41:34.747Z,16.80
2022-10-17T08:44:43.097Z,16.90
2022-10-17T08:47:13.503Z,17.00
2022-10-17T08:49:52.224Z,17.00
2022-10-17T08:52:39.555Z,17.10
2022-10-17T08:55:23.123Z,17.20
2022-10-17T08:57:49.839Z,17.20
2022-10-17T09:00:21.002Z,17.30
2022-10-17T09:03:48.518Z,17.40
2022-10-17T09:06:35.501Z,17.50
2022-10-17T09:09:10.499Z,17.60
2022-10-17T09:11:43.385Z,17.60
2022-10-17T09:14:21.787Z,17.70
2022-10-17T09:17:06.966Z,17.80
2022-10-17T09:19:52.809Z,17.90
2022-10-17T09:22:22.906Z,18.10
2022-10-17T09:24:55.623Z,18.10
2022-10-17T09:27:39.214Z,18.20
2022-10-17T09:30:46.488Z,18.30
2022-10-17T09:33:34.880Z,18.30
2022-10-17T09:36:14.389Z,18.40
2022-10-17T09:38:43.420Z,18.50
2022-10-17T09:41:43.151Z,18.60
2022-10-17T09:44:32.971Z,18.60
2022-10-17T09:47:23.429Z,18.80
2022-10-17T09:49:50.681Z,18.80
2022-10-17T09:52:22.593Z,18.90
2022-10-17T09:54:51.735Z,19.00
2022-10-17T09:57:19.923Z,19.30
2022-10-17T09:59:55.653Z,19.10
2022-10-17T10:02:24.882Z,19.20
2022-10-17T10:05:06.449Z,19.30
2022-10-17T10:07:37.245Z,19.40
2022-10-17T10:10:06.731Z,19.40
2022-10-17T10:12:36.905Z,19.50
2022-10-17T10:15:41.102Z,19.60
2022-10-17T10:18:26.604Z,19.70
2022-10-17T10:21:16.483Z,19.70
2022-10-17T10:23:45.183Z,19.80
2022-10-17T10:26:20.269Z,19.90
2022-10-17T10:29:20.741Z,20.00
2022-10-17T10:31:51.236Z,20.10
2022-10-17T10:34:35.589Z,20.10
2022-10-17T10:37:17.034Z,20.20
2022-10-17T10:39:54.297Z,20.40
2022-10-17T10:45:53.676Z,20.50
2022-10-17T10:48:23.189Z,20.50
2022-10-17T10:50:51.045Z,20.70
2022-10-17T10:53:35.538Z,21.10
2022-10-17T10:56:19.507Z,20.90
2022-10-17T10:59:03.397Z,21.10
2022-10-17T11:01:41.662Z,21.10
2022-10-17T11:04:32.514Z,21.20
2022-10-17T11:07:04.725Z,21.30
2022-10-17T11:09:34.089Z,21.40
2022-10-17T11:12:23.626Z,21.40
2022-10-17T11:15:13.217Z,21.50
2022-10-17T11:17:57.555Z,21.60
2022-10-17T11:20:40.593Z,21.70
2022-10-17T11:23:21.534Z,22.10
2022-10-17T11:25:52.800Z,21.90
2022-10-17T11:28:21.272Z,22.00
2022-10-17T11:30:50.889Z,22.20
2022-10-17T11:34:06.498Z,22.20
2022-10-17T11:36:36.360Z,22.30
2022-10-17T11:39:11.919Z,22.30
2022-10-17T11:42:21.982Z,22.50
2022-10-17T11:49:04.217Z,22.90
2022-10-17T11:52:55.567Z,22.90
2022-10-17T11:59:29.949Z,23.80
2022-10-17T12:03:08.054Z,23.10
2022-10-17T12:06:08.550Z,23.30
2022-10-17T12:16:17.429Z,23.70
2022-10-17T12:19:21.596Z,23.90
2022-10-17T12:22:18.517Z,23.30
2022-10-17T12:24:59.979Z,24.10
2022-10-17T12:28:25.460Z,24.10
2022-10-17T12:31:38.755Z,24.30
2022-10-17T12:34:05.965Z,24.60
2022-10-17T12:36:41.334Z,24.50
2022-10-17T12:39:22.792Z,24.60
2022-10-17T12:41:54.836Z,24.70
2022-10-17T12:44:43.526Z,24.80
2022-10-17T12:47:43.935Z,24.90
2022-10-17T12:51:34.852Z,25.10
2022-10-17T12:54:00.770Z,25.20
2022-10-17T12:56:49.176Z,25.40
2022-10-17T13:02:37.362Z,25.60
2022-10-17T13:05:26.556Z,26.60
2022-10-17T13:07:53.665Z,25.80
2022-10-17T13:10:23.185Z,26.00
2022-10-17T13:12:51.204Z,26.10
2022-10-17T13:15:19.709Z,26.30
2022-10-17T13:17:54.770Z,26.30
2022-10-17T13:20:28.878Z,26.30
2022-10-17T13:22:58.807Z,26.40
2022-10-17T13:25:28.030Z,26.50
2022-10-17T13:28:05.958Z,26.60
2022-10-17T13:30:35.455Z,26.70
2022-10-17T13:33:03.430Z,26.80
2022-10-17T13:35:59.059Z,26.90
2022-10-17T13:38:28.727Z,27.00
2022-10-17T13:41:02.030Z,27.10
2022-10-17T13:43:33.265Z,27.20
2022-10-17T13:46:25.422Z,27.30
2022-10-17T13:48:52.749Z,27.30
2022-10-17T13:51:19.816Z,27.40
2022-10-17T13:53:46.514Z,27.40
2022-10-17T13:56:29.886Z,27.50
2022-10-17T13:59:00.506Z,27.50
2022-10-17T14:01:28.895Z,27.50
2022-10-17T14:04:07.913Z,27.50
2022-10-17T14:06:46.321Z,27.50
2022-10-17T14:09:26.119Z,27.60
2022-10-17T14:12:16.601Z,27.60
2022-10-17T14:15:09.890Z,27.50
2022-10-17T14:17:38.576Z,27.50
2022-10-17T14:20:40.755Z,27.50
2022-10-17T14:23:17.906Z,27.50
2022-10-17T14:25:49.558Z,27.50
2022-10-17T14:28:16.978Z,27.50
2022-10-17T14:31:01.162Z,27.50
2022-10-17T14:33:30.625Z,27.40
2022-10-17T14:36:01.684Z,27.40
2022-10-17T14:38:29.770Z,27.40
2022-10-17T14:41:41.900Z,27.30
2022-10-17T14:44:26.772Z,27.30
2022-10-17T14:47:05.932Z,27.30
2022-10-17T14:49:41.098Z,27.30
2022-10-17T14:52:17.972Z,27.20
2022-10-17T14:54:47.571Z,27.20
2022-10-17T14:57:20.032Z,27.10
2022-10-17T14:59:55.417Z,27.10
2022-10-17T15:02:27.792Z,27.10
2022-10-17T15:04:55.958Z,27.00
2022-10-17T15:07:23.725Z,27.00
2022-10-17T15:09:51.904Z,27.00
2022-10-17T15:12:21.219Z,26.90
2022-10-17T15:14:48.557Z,26.90
2022-10-17T15:20:16.709Z,26.90
2022-10-17T15:22:43.486Z,26.90
2022-10-17T15:25:10.255Z,26.90
2022-10-17T15:27:37.028Z,26.90
2022-10-17T15:30:04.763Z,26.90
2022-10-17T15:32:31.513Z,26.80
2022-10-17T15:34:58.298Z,26.80
2022-10-17T15:37:25.779Z,26.80
2022-10-17T15:39:54.522Z,26.70
2022-10-17T15:42:22.964Z,26.70
2022-10-17T15:44:50.268Z,26.60
2022-10-17T15:47:28.479Z,26.60
2022-10-17T15:49:55.794Z,26.50
2022-10-17T15:52:23.550Z,26.40
2022-10-17T15:54:50.588Z,26.40
2022-10-17T15:57:21.288Z,26.30
2022-10-17T15:59:48.325Z,26.20
2022-10-17T16:02:16.302Z,26.20
2022-10-17T16:04:44.964Z,26.10
2022-10-17T16:07:11.771Z,26.00
2022-10-17T16:09:38.860Z,25.90
2022-10-17T16:12:07.079Z,25.80
2022-10-17T16:14:34.067Z,25.80
2022-10-17T16:17:01.323Z,25.70
2022-10-17T16:19:30.096Z,25.70
2022-10-17T16:21:59.623Z,25.60
2022-10-17T16:24:28.880Z,25.50
2022-10-17T16:26:55.682Z,25.40
2022-10-17T16:29:22.425Z,25.30
2022-10-17T16:31:51.385Z,25.30
2022-10-17T16:34:18.068Z,25.30
2022-10-17T16:36:44.922Z,25.20
2022-10-17T16:39:11.671Z,25.20
2022-10-17T16:41:39.493Z,25.20
2022-10-17T16:44:08.191Z,25.20
2022-10-17T16:46:36.991Z,25.20
2022-10-17T16:49:05.416Z,25.10
2022-10-17T16:51:33.770Z,25.10
2022-10-17T16:54:00.658Z,25.10
2022-10-17T16:56:32.615Z,25.00
2022-10-17T16:59:00.489Z,25.00
2022-10-17T17:01:29.460Z,25.00
2022-10-17T17:03:56.814Z,24.90
2022-10-17T17:06:26.705Z,24.90
2022-10-17T17:08:54.440Z,24.80
2022-10-17T17:11:23.471Z,24.80
2022-10-17T17:13:50.552Z,24.80
2022-10-17T17:16:22.949Z,24.70
2022-10-17T17:19:00.769Z,24.60
2022-10-17T17:21:27.901Z,24.60
2022-10-17T17:23:58.965Z,24.50
2022-10-17T17:26:27.294Z,24.50
2022-10-17T17:28:54.266Z,24.50
2022-10-17T17:31:23.336Z,24.40
2022-10-17T17:33:51.122Z,24.40
2022-10-17T17:36:24.219Z,24.30
2022-10-17T17:38:51.863Z,24.30
2022-10-17T17:41:20.101Z,24.30
2022-10-17T17:43:48.028Z,24.20
2022-10-17T17:46:16.898Z,24.20
2022-10-17T17:48:45.447Z,24.10
2022-10-17T17:51:13.973Z,24.10
2022-10-17T17:53:41.124Z,24.10
2022-10-17T17:56:17.874Z,24.10
2022-10-17T17:58:46.106Z,24.00
2022-10-17T18:01:21.206Z,23.90
2022-10-17T18:03:52.375Z,23.90
2022-10-17T18:06:20.279Z,23.90
2022-10-17T18:08:49.345Z,23.80
2022-10-17T18:11:18.412Z,23.80
2022-10-17T18:13:48.134Z,23.70
2022-10-17T18:16:16.811Z,23.60
2022-10-17T18:18:45.013Z,23.60
2022-10-17T18:21:13.231Z,23.60
2022-10-17T18:23:41.129Z,23.50
2022-10-17T18:26:08.347Z,23.50
2022-10-17T18:28:39.603Z,23.40
2022-10-17T18:31:08.278Z,23.40
2022-10-17T18:33:35.441Z,23.40
2022-10-17T18:36:07.004Z,23.30
2022-10-17T18:38:34.244Z,23.30
2022-10-17T18:41:27.441Z,23.20
2022-10-17T18:43:55.328Z,23.20
2022-10-17T18:46:28.460Z,23.10
2022-10-17T18:48:56.733Z,23.10
2022-10-17T18:51:24.851Z,23.10
2022-10-17T18:53:53.854Z,23.00
2022-10-17T18:56:21.473Z,22.90
2022-10-17T18:58:48.526Z,22.90
2022-10-17T19:01:23.633Z,22.90
2022-10-17T19:03:51.626Z,22.80
2022-10-17T19:06:20.386Z,22.70
2022-10-17T19:08:47.918Z,22.70
2022-10-17T19:11:18.798Z,22.70
2022-10-17T19:16:27.250Z,22.60
2022-10-17T19:18:59.989Z,22.60
2022-10-17T19:21:27.037Z,22.50
2022-10-17T19:24:04.386Z,22.50
2022-10-17T19:26:33.147Z,22.50
2022-10-17T19:29:00.693Z,22.50
2022-10-17T19:33:56.417Z,22.40
2022-10-17T19:36:27.600Z,22.40
2022-10-17T19:38:58.138Z,22.20
2022-10-17T19:41:25.264Z,22.30
2022-10-17T19:43:51.977Z,22.30
2022-10-17T19:46:21.081Z,22.20
2022-10-17T19:48:48.835Z,22.20
2022-10-17T19:51:17.204Z,22.10
2022-10-17T19:53:44.534Z,22.10
2022-10-17T19:56:11.624Z,22.00
2022-10-17T19:58:45.237Z,22.00
2022-10-17T20:01:14.488Z,22.00
2022-10-17T20:03:41.810Z,21.90
2022-10-17T20:06:08.978Z,21.90
2022-10-17T20:08:36.745Z,21.80
2022-10-17T20:11:11.169Z,21.70
2022-10-17T20:13:38.574Z,21.60
2022-10-17T20:16:06.306Z,21.50
2022-10-17T20:18:33.350Z,21.50
2022-10-17T20:21:08.799Z,21.40
2022-10-17T20:23:36.773Z,21.50
2022-10-17T20:26:25.506Z,21.40
2022-10-17T20:28:52.969Z,21.40
2022-10-17T20:31:20.380Z,21.30
2022-10-17T20:33:51.873Z,21.20
2022-10-17T20:36:23.170Z,21.20
2022-10-17T20:38:56.344Z,21.10
2022-10-17T20:41:23.443Z,21.10
2022-10-17T20:43:51.540Z,21.10
2022-10-17T20:46:34.959Z,21.00
2022-10-17T20:49:03.253Z,21.00
2022-10-17T20:51:29.938Z,21.00
2022-10-17T20:56:30.403Z,20.90
2022-10-17T20:58:59.086Z,20.80
2022-10-17T21:01:26.752Z,20.80
2022-10-17T21:03:53.587Z,20.80
2022-10-17T21:06:20.694Z,20.80
2022-10-17T21:08:47.605Z,20.80
2022-10-17T21:11:17.494Z,20.70
2022-10-17T21:13:44.564Z,20.70
2022-10-17T21:16:14.190Z,20.70
2022-10-17T21:18:41.378Z,20.60
2022-10-17T21:21:10.440Z,20.60
2022-10-17T21:23:37.745Z,20.60
2022-10-17T21:26:05.932Z,20.60
2022-10-17T21:28:33.350Z,20.50
2022-10-17T21:31:21.350Z,20.40
2022-10-17T21:33:59.456Z,20.50
2022-10-17T21:36:27.404Z,20.40
2022-10-17T21:38:55.837Z,20.40
2022-10-17T21:41:25.025Z,20.30
2022-10-17T21:43:56.730Z,20.40
2022-10-17T21:46:23.749Z,20.30
2022-10-17T21:48:51.817Z,20.30
2022-10-17T21:51:21.815Z,20.30
2022-10-17T21:53:49.507Z,20.20
2022-10-17T21:56:20.821Z,20.20
2022-10-17T21:58:48.235Z,20.20
2022-10-17T22:01:20.360Z,20.20
2022-10-17T22:03:49.295Z,20.10
2022-10-17T22:06:38.828Z,20.10
2022-10-17T22:09:07.033Z,20.00
2022-10-17T22:11:35.093Z,19.90
2022-10-17T22:14:06.696Z,19.90
2022-10-17T22:16:33.916Z,19.90
2022-10-17T22:19:05.898Z,19.80
2022-10-17T22:21:34.513Z,19.80
2022-10-17T22:24:03.789Z,19.80
2022-10-17T22:26:32.148Z,19.80
2022-10-17T22:28:58.944Z,19.70
2022-10-17T22:31:26.163Z,19.70
2022-10-17T22:33:52.843Z,19.60
2022-10-17T22:36:19.508Z,19.60
2022-10-17T22:38:46.143Z,19.50
2022-10-17T22:41:12.751Z,19.60
2022-10-17T22:43:39.422Z,19.60
2022-10-17T22:46:07.285Z,19.50
2022-10-17T22:48:34.222Z,19.50
2022-10-17T22:51:01.029Z,19.50
2022-10-17T22:53:29.304Z,19.50
2022-10-17T22:55:58.757Z,19.50
2022-10-17T22:58:26.542Z,19.40
2022-10-17T23:00:53.982Z,19.30
2022-10-17T23:03:21.322Z,19.30
2022-10-17T23:05:49.741Z,19.30
2022-10-17T23:08:18.112Z,19.30
2022-10-17T23:10:45.811Z,19.20
2022-10-17T23:13:12.674Z,19.10
2022-10-17T23:15:39.686Z,19.30
2022-10-17T23:18:06.969Z,19.20
2022-10-17T23:20:36.502Z,19.20
2022-10-17T23:23:03.345Z,19.20
2022-10-17T23:25:29.933Z,19.10
2022-10-17T23:27:56.582Z,19.10
2022-10-17T23:30:25.719Z,19.10
2022-10-17T23:32:53.478Z,19.10
2022-10-17T23:35:20.087Z,19.00
2022-10-17T23:37:46.711Z,19.00
2022-10-17T23:40:13.442Z,19.00
2022-10-17T23:42:42.837Z,18.90
2022-10-17T23:45:09.944Z,19.00
2022-10-17T23:47:36.572Z,19.00
2022-10-17T23:50:04.203Z,18.90
2022-10-17T23:52:30.839Z,18.90
2022-10-17T23:54:57.482Z,18.90
2022-10-17T23:57:24.110Z,18.90
2022-10-17T23:59:50.770Z,18.80
